Terminal Aerodrome Forecast
Issued by NWS Northern Indiana

Home | Current Version | Previous Version | Text Only | Print | Product List | Glossary Off
Versions: 1 2 3 4 5 6 7 8 9 10 11 12 13 14 15 16 17

000
FTUS43 KIWX 142100 AAA
TAFFWA
TAF AMD
KFWA 142150Z 1422/1518 31012G20KT P6SM SCT015 OVC025
      TEMPO 1423/1501 OVC015
     FM150100 34013KT 5SM -RASN OVC015
     FM150400 34012KT 2SM -SN OVC012
     FM150900 32012KT P6SM OVC015
     FM151200 33017G24KT P6SM BKN025=

USA.gov is the U.S. government's official web portal to all federal, state and local government web resources and services.